sensor_id;sensor_type;location;lat;lon;timestamp;P1;durP1;ratioP1;P2;durP2;ratioP2
41829;SDS011;38614;43.472;23.936;2023-08-21T00:01:01;5.47;;;2.55;;
41829;SDS011;38614;43.472;23.936;2023-08-21T00:03:49;2.85;;;2.10;;
41829;SDS011;38614;43.472;23.936;2023-08-21T00:06:37;2.95;;;2.25;;
41829;SDS011;38614;43.472;23.936;2023-08-21T00:09:25;4.57;;;2.20;;
41829;SDS011;38614;43.472;23.936;2023-08-21T00:12:13;2.42;;;2.22;;
41829;SDS011;38614;43.472;23.936;2023-08-21T00:15:01;4.30;;;2.20;;
41829;SDS011;38614;43.472;23.936;2023-08-21T00:17:51;3.28;;;2.30;;
41829;SDS011;38614;43.472;23.936;2023-08-21T00:20:39;4.38;;;2.30;;
41829;SDS011;38614;43.472;23.936;2023-08-21T00:23:29;5.60;;;3.22;;
41829;SDS011;38614;43.472;23.936;2023-08-21T00:26:16;4.22;;;2.35;;
41829;SDS011;38614;43.472;23.936;2023-08-21T00:29:04;9.55;;;3.50;;
41829;SDS011;38614;43.472;23.936;2023-08-21T00:31:55;7.78;;;2.50;;
41829;SDS011;38614;43.472;23.936;2023-08-21T00:34:43;10.63;;;2.80;;
41829;SDS011;38614;43.472;23.936;2023-08-21T00:37:30;8.48;;;3.33;;
41829;SDS011;38614;43.472;23.936;2023-08-21T00:40:18;4.38;;;3.13;;
41829;SDS011;38614;43.472;23.936;2023-08-21T00:43:06;6.50;;;2.72;;
41829;SDS011;38614;43.472;23.936;2023-08-21T00:45:54;13.43;;;2.85;;
41829;SDS011;38614;43.472;23.936;2023-08-21T00:48:42;6.40;;;2.45;;
41829;SDS011;38614;43.472;23.936;2023-08-21T00:51:30;7.35;;;3.30;;
41829;SDS011;38614;43.472;23.936;2023-08-21T00:54:22;3.72;;;2.65;;
41829;SDS011;38614;43.472;23.936;2023-08-21T00:57:13;5.13;;;3.67;;
41829;SDS011;38614;43.472;23.936;2023-08-21T01:00:01;8.57;;;3.35;;
41829;SDS011;38614;43.472;23.936;2023-08-21T01:02:51;4.40;;;2.50;;
41829;SDS011;38614;43.472;23.936;2023-08-21T01:05:39;3.97;;;2.50;;
41829;SDS011;38614;43.472;23.936;2023-08-21T01:08:38;8.43;;;2.95;;
41829;SDS011;38614;43.472;23.936;2023-08-21T01:11:41;5.20;;;2.33;;
41829;SDS011;38614;43.472;23.936;2023-08-21T01:14:36;13.00;;;2.30;;
41829;SDS011;38614;43.472;23.936;2023-08-21T01:17:36;6.85;;;2.78;;
41829;SDS011;38614;43.472;23.936;2023-08-21T01:20:25;6.28;;;2.85;;
41829;SDS011;38614;43.472;23.936;2023-08-21T01:26:34;4.65;;;2.67;;
41829;SDS011;38614;43.472;23.936;2023-08-21T01:29:22;5.53;;;2.45;;
41829;SDS011;38614;43.472;23.936;2023-08-21T01:35:07;6.07;;;3.00;;
41829;SDS011;38614;43.472;23.936;2023-08-21T01:37:57;5.57;;;3.05;;
41829;SDS011;38614;43.472;23.936;2023-08-21T01:40:47;11.45;;;4.05;;
41829;SDS011;38614;43.472;23.936;2023-08-21T01:43:34;6.78;;;3.55;;
41829;SDS011;38614;43.472;23.936;2023-08-21T01:46:23;7.40;;;3.13;;
41829;SDS011;38614;43.472;23.936;2023-08-21T01:49:12;3.08;;;2.67;;
41829;SDS011;38614;43.472;23.936;2023-08-21T01:52:03;4.57;;;2.83;;
41829;SDS011;38614;43.472;23.936;2023-08-21T01:54:51;3.13;;;2.92;;
41829;SDS011;38614;43.472;23.936;2023-08-21T01:57:40;2.60;;;2.38;;
41829;SDS011;38614;43.472;23.936;2023-08-21T02:00:29;5.95;;;2.83;;
41829;SDS011;38614;43.472;23.936;2023-08-21T02:03:17;6.90;;;3.25;;
41829;SDS011;38614;43.472;23.936;2023-08-21T02:06:05;2.95;;;2.67;;
41829;SDS011;38614;43.472;23.936;2023-08-21T02:08:53;5.90;;;2.33;;
41829;SDS011;38614;43.472;23.936;2023-08-21T02:11:44;2.30;;;2.03;;
41829;SDS011;38614;43.472;23.936;2023-08-21T02:14:34;8.52;;;2.20;;
41829;SDS011;38614;43.472;23.936;2023-08-21T02:17:25;4.13;;;2.92;;
41829;SDS011;38614;43.472;23.936;2023-08-21T02:20:14;3.08;;;2.15;;
41829;SDS011;38614;43.472;23.936;2023-08-21T02:23:02;3.38;;;2.63;;
41829;SDS011;38614;43.472;23.936;2023-08-21T02:25:50;3.60;;;2.80;;
41829;SDS011;38614;43.472;23.936;2023-08-21T02:28:38;2.35;;;1.98;;
41829;SDS011;38614;43.472;23.936;2023-08-21T02:31:26;2.53;;;2.33;;
41829;SDS011;38614;43.472;23.936;2023-08-21T02:34:16;2.72;;;2.03;;
41829;SDS011;38614;43.472;23.936;2023-08-21T02:37:06;4.22;;;2.05;;
41829;SDS011;38614;43.472;23.936;2023-08-21T02:39:53;3.30;;;2.08;;
41829;SDS011;38614;43.472;23.936;2023-08-21T02:42:41;2.67;;;2.47;;
41829;SDS011;38614;43.472;23.936;2023-08-21T02:45:29;2.72;;;2.50;;
41829;SDS011;38614;43.472;23.936;2023-08-21T02:48:18;8.65;;;2.40;;
41829;SDS011;38614;43.472;23.936;2023-08-21T02:51:05;2.80;;;2.30;;
41829;SDS011;38614;43.472;23.936;2023-08-21T02:53:53;2.83;;;2.17;;
41829;SDS011;38614;43.472;23.936;2023-08-21T02:56:41;8.68;;;1.90;;
41829;SDS011;38614;43.472;23.936;2023-08-21T02:59:29;2.65;;;2.45;;
41829;SDS011;38614;43.472;23.936;2023-08-21T03:02:17;2.17;;;2.08;;
41829;SDS011;38614;43.472;23.936;2023-08-21T03:05:08;7.30;;;2.83;;
41829;SDS011;38614;43.472;23.936;2023-08-21T03:07:56;3.35;;;2.05;;
41829;SDS011;38614;43.472;23.936;2023-08-21T03:10:47;2.00;;;1.88;;
41829;SDS011;38614;43.472;23.936;2023-08-21T03:13:34;11.65;;;2.63;;
41829;SDS011;38614;43.472;23.936;2023-08-21T03:16:22;4.40;;;2.83;;
41829;SDS011;38614;43.472;23.936;2023-08-21T03:19:10;7.38;;;1.63;;
41829;SDS011;38614;43.472;23.936;2023-08-21T03:21:58;7.28;;;2.17;;
41829;SDS011;38614;43.472;23.936;2023-08-21T03:24:46;4.18;;;2.42;;
41829;SDS011;38614;43.472;23.936;2023-08-21T03:27:33;3.67;;;2.63;;
41829;SDS011;38614;43.472;23.936;2023-08-21T03:30:26;9.32;;;2.55;;
41829;SDS011;38614;43.472;23.936;2023-08-21T03:33:14;5.93;;;2.40;;
41829;SDS011;38614;43.472;23.936;2023-08-21T03:36:02;3.30;;;2.95;;
41829;SDS011;38614;43.472;23.936;2023-08-21T03:38:50;8.00;;;2.50;;
41829;SDS011;38614;43.472;23.936;2023-08-21T03:41:38;8.10;;;3.70;;
41829;SDS011;38614;43.472;23.936;2023-08-21T03:44:26;12.27;;;3.28;;
41829;SDS011;38614;43.472;23.936;2023-08-21T03:47:14;5.35;;;3.28;;
41829;SDS011;38614;43.472;23.936;2023-08-21T03:50:09;5.63;;;3.08;;
41829;SDS011;38614;43.472;23.936;2023-08-21T03:52:57;11.93;;;3.25;;
41829;SDS011;38614;43.472;23.936;2023-08-21T03:55:45;12.20;;;3.00;;
41829;SDS011;38614;43.472;23.936;2023-08-21T03:58:33;5.28;;;3.63;;
41829;SDS011;38614;43.472;23.936;2023-08-21T04:01:20;5.68;;;2.45;;
41829;SDS011;38614;43.472;23.936;2023-08-21T04:04:08;10.07;;;2.88;;
41829;SDS011;38614;43.472;23.936;2023-08-21T04:06:56;10.35;;;3.42;;
41829;SDS011;38614;43.472;23.936;2023-08-21T04:09:44;11.43;;;3.38;;
41829;SDS011;38614;43.472;23.936;2023-08-21T04:12:32;7.97;;;2.90;;
41829;SDS011;38614;43.472;23.936;2023-08-21T04:15:19;19.83;;;3.30;;
41829;SDS011;38614;43.472;23.936;2023-08-21T04:18:07;7.15;;;3.40;;
41829;SDS011;38614;43.472;23.936;2023-08-21T04:20:55;5.63;;;2.97;;
41829;SDS011;38614;43.472;23.936;2023-08-21T04:23:44;9.63;;;3.50;;
41829;SDS011;38614;43.472;23.936;2023-08-21T04:26:33;5.88;;;2.90;;
41829;SDS011;38614;43.472;23.936;2023-08-21T04:29:21;3.05;;;2.75;;
41829;SDS011;38614;43.472;23.936;2023-08-21T04:32:08;5.97;;;2.42;;
41829;SDS011;38614;43.472;23.936;2023-08-21T04:34:56;5.82;;;2.97;;
41829;SDS011;38614;43.472;23.936;2023-08-21T04:37:46;7.05;;;3.65;;
41829;SDS011;38614;43.472;23.936;2023-08-21T04:40:37;10.90;;;3.88;;
41829;SDS011;38614;43.472;23.936;2023-08-21T04:43:25;2.30;;;2.00;;
41829;SDS011;38614;43.472;23.936;2023-08-21T04:46:13;4.32;;;2.40;;
41829;SDS011;38614;43.472;23.936;2023-08-21T04:49:04;8.15;;;2.65;;
41829;SDS011;38614;43.472;23.936;2023-08-21T04:51:53;7.45;;;3.13;;
41829;SDS011;38614;43.472;23.936;2023-08-21T04:54:40;7.03;;;3.08;;
41829;SDS011;38614;43.472;23.936;2023-08-21T04:57:31;4.18;;;2.55;;
41829;SDS011;38614;43.472;23.936;2023-08-21T05:00:25;5.15;;;3.47;;
41829;SDS011;38614;43.472;23.936;2023-08-21T05:03:14;13.00;;;3.30;;
41829;SDS011;38614;43.472;23.936;2023-08-21T05:06:04;106.22;;;10.45;;
41829;SDS011;38614;43.472;23.936;2023-08-21T05:08:53;62.90;;;6.63;;
41829;SDS011;38614;43.472;23.936;2023-08-21T05:11:41;41.45;;;3.97;;
41829;SDS011;38614;43.472;23.936;2023-08-21T05:14:30;3.70;;;2.70;;
41829;SDS011;38614;43.472;23.936;2023-08-21T05:17:17;21.80;;;3.10;;
41829;SDS011;38614;43.472;23.936;2023-08-21T05:20:05;7.28;;;3.72;;
41829;SDS011;38614;43.472;23.936;2023-08-21T05:22:54;11.57;;;3.38;;
41829;SDS011;38614;43.472;23.936;2023-08-21T05:25:45;7.38;;;2.92;;
41829;SDS011;38614;43.472;23.936;2023-08-21T05:28:35;13.02;;;3.25;;
41829;SDS011;38614;43.472;23.936;2023-08-21T05:31:23;7.22;;;4.00;;
41829;SDS011;38614;43.472;23.936;2023-08-21T05:34:13;11.55;;;3.63;;
41829;SDS011;38614;43.472;23.936;2023-08-21T05:37:01;9.48;;;4.45;;
41829;SDS011;38614;43.472;23.936;2023-08-21T05:39:50;5.25;;;3.42;;
41829;SDS011;38614;43.472;23.936;2023-08-21T05:42:37;3.20;;;2.90;;
41829;SDS011;38614;43.472;23.936;2023-08-21T05:45:26;8.48;;;3.15;;
41829;SDS011;38614;43.472;23.936;2023-08-21T05:48:14;3.00;;;2.35;;
41829;SDS011;38614;43.472;23.936;2023-08-21T05:51:01;3.50;;;3.20;;
41829;SDS011;38614;43.472;23.936;2023-08-21T05:53:51;5.43;;;2.58;;
41829;SDS011;38614;43.472;23.936;2023-08-21T05:56:39;6.57;;;2.50;;
41829;SDS011;38614;43.472;23.936;2023-08-21T05:59:29;3.97;;;2.15;;
41829;SDS011;38614;43.472;23.936;2023-08-21T06:02:20;3.42;;;1.95;;
41829;SDS011;38614;43.472;23.936;2023-08-21T06:05:07;4.13;;;2.90;;
41829;SDS011;38614;43.472;23.936;2023-08-21T06:07:58;2.83;;;2.53;;
41829;SDS011;38614;43.472;23.936;2023-08-21T06:10:50;3.40;;;2.17;;
41829;SDS011;38614;43.472;23.936;2023-08-21T06:13:39;6.57;;;2.85;;
41829;SDS011;38614;43.472;23.936;2023-08-21T06:16:27;2.65;;;2.38;;
41829;SDS011;38614;43.472;23.936;2023-08-21T06:19:14;4.18;;;2.58;;
41829;SDS011;38614;43.472;23.936;2023-08-21T06:22:02;4.32;;;2.13;;
41829;SDS011;38614;43.472;23.936;2023-08-21T06:24:50;9.30;;;3.75;;
41829;SDS011;38614;43.472;23.936;2023-08-21T06:27:41;4.32;;;2.97;;
41829;SDS011;38614;43.472;23.936;2023-08-21T06:30:44;5.72;;;3.05;;
41829;SDS011;38614;43.472;23.936;2023-08-21T06:33:32;4.30;;;2.88;;
41829;SDS011;38614;43.472;23.936;2023-08-21T06:36:21;4.32;;;2.88;;
41829;SDS011;38614;43.472;23.936;2023-08-21T06:39:08;3.78;;;3.00;;
41829;SDS011;38614;43.472;23.936;2023-08-21T06:41:56;3.00;;;2.70;;
41829;SDS011;38614;43.472;23.936;2023-08-21T06:44:52;4.45;;;3.13;;
41829;SDS011;38614;43.472;23.936;2023-08-21T06:47:39;3.45;;;2.95;;
41829;SDS011;38614;43.472;23.936;2023-08-21T06:50:28;8.50;;;3.35;;
41829;SDS011;38614;43.472;23.936;2023-08-21T06:53:16;3.67;;;2.92;;
41829;SDS011;38614;43.472;23.936;2023-08-21T06:56:04;5.15;;;2.95;;
41829;SDS011;38614;43.472;23.936;2023-08-21T06:58:52;9.70;;;2.83;;
41829;SDS011;38614;43.472;23.936;2023-08-21T07:01:42;5.32;;;3.08;;
41829;SDS011;38614;43.472;23.936;2023-08-21T07:04:29;8.43;;;3.53;;
41829;SDS011;38614;43.472;23.936;2023-08-21T07:07:17;2.75;;;2.53;;
41829;SDS011;38614;43.472;23.936;2023-08-21T07:10:05;3.10;;;2.60;;
41829;SDS011;38614;43.472;23.936;2023-08-21T07:12:53;9.40;;;3.38;;
41829;SDS011;38614;43.472;23.936;2023-08-21T07:15:40;7.15;;;4.50;;
41829;SDS011;38614;43.472;23.936;2023-08-21T07:18:30;7.47;;;2.78;;
41829;SDS011;38614;43.472;23.936;2023-08-21T07:21:21;4.32;;;2.50;;
41829;SDS011;38614;43.472;23.936;2023-08-21T07:24:19;8.73;;;3.08;;
41829;SDS011;38614;43.472;23.936;2023-08-21T07:27:07;10.95;;;3.25;;
41829;SDS011;38614;43.472;23.936;2023-08-21T07:29:55;7.05;;;2.90;;
41829;SDS011;38614;43.472;23.936;2023-08-21T07:32:43;3.70;;;2.83;;
41829;SDS011;38614;43.472;23.936;2023-08-21T07:35:32;8.60;;;2.47;;
41829;SDS011;38614;43.472;23.936;2023-08-21T07:38:19;5.18;;;2.80;;
41829;SDS011;38614;43.472;23.936;2023-08-21T07:41:07;4.68;;;2.10;;
41829;SDS011;38614;43.472;23.936;2023-08-21T07:43:59;17.00;;;3.38;;
41829;SDS011;38614;43.472;23.936;2023-08-21T07:46:47;12.98;;;2.47;;
41829;SDS011;38614;43.472;23.936;2023-08-21T07:49:35;5.90;;;2.75;;
41829;SDS011;38614;43.472;23.936;2023-08-21T07:52:23;8.30;;;2.83;;
41829;SDS011;38614;43.472;23.936;2023-08-21T07:55:11;5.50;;;3.50;;
41829;SDS011;38614;43.472;23.936;2023-08-21T07:57:59;4.32;;;2.70;;
41829;SDS011;38614;43.472;23.936;2023-08-21T08:00:46;6.75;;;3.22;;
41829;SDS011;38614;43.472;23.936;2023-08-21T08:03:38;4.35;;;2.38;;
41829;SDS011;38614;43.472;23.936;2023-08-21T08:06:26;3.83;;;2.65;;
41829;SDS011;38614;43.472;23.936;2023-08-21T08:09:14;4.00;;;2.38;;
41829;SDS011;38614;43.472;23.936;2023-08-21T08:12:02;2.90;;;2.08;;
41829;SDS011;38614;43.472;23.936;2023-08-21T08:14:50;5.88;;;2.65;;
41829;SDS011;38614;43.472;23.936;2023-08-21T08:17:38;3.17;;;2.33;;
41829;SDS011;38614;43.472;23.936;2023-08-21T08:20:28;11.82;;;2.38;;
41829;SDS011;38614;43.472;23.936;2023-08-21T08:23:16;3.33;;;2.35;;
41829;SDS011;38614;43.472;23.936;2023-08-21T08:26:07;13.18;;;2.05;;
41829;SDS011;38614;43.472;23.936;2023-08-21T08:28:56;4.90;;;2.40;;
41829;SDS011;38614;43.472;23.936;2023-08-21T08:31:43;4.13;;;1.58;;
41829;SDS011;38614;43.472;23.936;2023-08-21T08:34:31;8.32;;;2.50;;
41829;SDS011;38614;43.472;23.936;2023-08-21T08:37:19;5.78;;;2.65;;
41829;SDS011;38614;43.472;23.936;2023-08-21T08:40:08;4.18;;;2.10;;
41829;SDS011;38614;43.472;23.936;2023-08-21T08:42:57;6.75;;;2.50;;
41829;SDS011;38614;43.472;23.936;2023-08-21T08:45:44;11.50;;;2.30;;
41829;SDS011;38614;43.472;23.936;2023-08-21T08:48:35;4.28;;;2.58;;
41829;SDS011;38614;43.472;23.936;2023-08-21T08:51:28;7.97;;;2.28;;
41829;SDS011;38614;43.472;23.936;2023-08-21T08:54:17;2.08;;;1.90;;
41829;SDS011;38614;43.472;23.936;2023-08-21T08:57:06;6.22;;;2.05;;
41829;SDS011;38614;43.472;23.936;2023-08-21T08:59:54;4.90;;;2.08;;
41829;SDS011;38614;43.472;23.936;2023-08-21T09:02:42;3.15;;;1.90;;
41829;SDS011;38614;43.472;23.936;2023-08-21T09:05:30;1.55;;;1.45;;
41829;SDS011;38614;43.472;23.936;2023-08-21T09:08:18;6.93;;;2.00;;
41829;SDS011;38614;43.472;23.936;2023-08-21T09:11:06;2.47;;;1.90;;
41829;SDS011;38614;43.472;23.936;2023-08-21T09:13:54;9.05;;;2.03;;
41829;SDS011;38614;43.472;23.936;2023-08-21T09:16:58;3.17;;;2.08;;
41829;SDS011;38614;43.472;23.936;2023-08-21T09:19:58;3.90;;;2.67;;
41829;SDS011;38614;43.472;23.936;2023-08-21T09:22:54;7.32;;;2.58;;
41829;SDS011;38614;43.472;23.936;2023-08-21T09:25:44;3.13;;;1.75;;
41829;SDS011;38614;43.472;23.936;2023-08-21T09:28:35;6.47;;;2.17;;
41829;SDS011;38614;43.472;23.936;2023-08-21T09:31:32;7.15;;;1.73;;
41829;SDS011;38614;43.472;23.936;2023-08-21T09:34:21;2.67;;;1.88;;
41829;SDS011;38614;43.472;23.936;2023-08-21T09:37:09;5.95;;;1.67;;
41829;SDS011;38614;43.472;23.936;2023-08-21T09:40:00;1.77;;;1.38;;
41829;SDS011;38614;43.472;23.936;2023-08-21T09:42:52;1.73;;;1.38;;
41829;SDS011;38614;43.472;23.936;2023-08-21T09:45:46;1.38;;;1.27;;
41829;SDS011;38614;43.472;23.936;2023-08-21T09:48:35;3.75;;;1.70;;
41829;SDS011;38614;43.472;23.936;2023-08-21T09:51:24;10.88;;;2.10;;
41829;SDS011;38614;43.472;23.936;2023-08-21T09:54:14;10.25;;;1.80;;
41829;SDS011;38614;43.472;23.936;2023-08-21T09:57:02;6.30;;;1.55;;
41829;SDS011;38614;43.472;23.936;2023-08-21T09:59:54;7.03;;;1.63;;
41829;SDS011;38614;43.472;23.936;2023-08-21T10:02:42;3.38;;;1.73;;
41829;SDS011;38614;43.472;23.936;2023-08-21T10:05:36;1.65;;;1.00;;
41829;SDS011;38614;43.472;23.936;2023-08-21T10:08:24;1.70;;;1.30;;
41829;SDS011;38614;43.472;23.936;2023-08-21T10:11:13;7.20;;;1.58;;
41829;SDS011;38614;43.472;23.936;2023-08-21T10:14:01;4.30;;;1.45;;
41829;SDS011;38614;43.472;23.936;2023-08-21T10:16:52;3.55;;;1.27;;
41829;SDS011;38614;43.472;23.936;2023-08-21T10:19:41;10.13;;;1.88;;
41829;SDS011;38614;43.472;23.936;2023-08-21T10:22:38;1.45;;;0.93;;
41829;SDS011;38614;43.472;23.936;2023-08-21T10:28:18;2.88;;;1.02;;
41829;SDS011;38614;43.472;23.936;2023-08-21T10:34:16;4.18;;;0.82;;
41829;SDS011;38614;43.472;23.936;2023-08-21T10:37:07;3.42;;;1.13;;
41829;SDS011;38614;43.472;23.936;2023-08-21T10:40:00;4.03;;;0.63;;
41829;SDS011;38614;43.472;23.936;2023-08-21T10:42:47;2.13;;;0.90;;
41829;SDS011;38614;43.472;23.936;2023-08-21T10:45:35;2.30;;;1.02;;
41829;SDS011;38614;43.472;23.936;2023-08-21T10:48:42;6.55;;;0.63;;
41829;SDS011;38614;43.472;23.936;2023-08-21T10:51:29;1.85;;;0.82;;
41829;SDS011;38614;43.472;23.936;2023-08-21T10:54:17;3.60;;;1.00;;
41829;SDS011;38614;43.472;23.936;2023-08-21T10:57:05;4.43;;;1.73;;
41829;SDS011;38614;43.472;23.936;2023-08-21T10:59:55;1.83;;;1.00;;
41829;SDS011;38614;43.472;23.936;2023-08-21T11:02:47;1.20;;;1.10;;
41829;SDS011;38614;43.472;23.936;2023-08-21T11:05:37;13.02;;;1.33;;
41829;SDS011;38614;43.472;23.936;2023-08-21T11:08:25;1.13;;;0.80;;
41829;SDS011;38614;43.472;23.936;2023-08-21T11:11:13;1.67;;;0.90;;
41829;SDS011;38614;43.472;23.936;2023-08-21T11:14:00;3.35;;;1.10;;
41829;SDS011;38614;43.472;23.936;2023-08-21T11:16:50;1.85;;;1.10;;
41829;SDS011;38614;43.472;23.936;2023-08-21T11:19:38;3.85;;;1.63;;
41829;SDS011;38614;43.472;23.936;2023-08-21T11:22:31;4.75;;;1.25;;
41829;SDS011;38614;43.472;23.936;2023-08-21T11:25:19;5.70;;;0.75;;
41829;SDS011;38614;43.472;23.936;2023-08-21T11:28:07;1.33;;;0.68;;
41829;SDS011;38614;43.472;23.936;2023-08-21T11:30:56;0.93;;;0.70;;
41829;SDS011;38614;43.472;23.936;2023-08-21T11:33:51;1.90;;;1.15;;
41829;SDS011;38614;43.472;23.936;2023-08-21T11:36:39;1.55;;;0.93;;
41829;SDS011;38614;43.472;23.936;2023-08-21T11:39:27;2.33;;;0.73;;
41829;SDS011;38614;43.472;23.936;2023-08-21T11:42:29;4.53;;;0.90;;
41829;SDS011;38614;43.472;23.936;2023-08-21T11:45:21;2.55;;;1.35;;
41829;SDS011;38614;43.472;23.936;2023-08-21T11:48:09;2.53;;;1.40;;
41829;SDS011;38614;43.472;23.936;2023-08-21T11:50:57;1.90;;;0.57;;
41829;SDS011;38614;43.472;23.936;2023-08-21T11:53:46;2.45;;;1.55;;
41829;SDS011;38614;43.472;23.936;2023-08-21T11:56:38;7.47;;;1.50;;
41829;SDS011;38614;43.472;23.936;2023-08-21T11:59:29;1.02;;;1.02;;
41829;SDS011;38614;43.472;23.936;2023-08-21T12:02:18;0.60;;;0.60;;
41829;SDS011;38614;43.472;23.936;2023-08-21T12:05:07;1.67;;;0.95;;
41829;SDS011;38614;43.472;23.936;2023-08-21T12:08:02;2.20;;;1.67;;
41829;SDS011;38614;43.472;23.936;2023-08-21T12:10:50;1.20;;;1.10;;
41829;SDS011;38614;43.472;23.936;2023-08-21T12:13:39;5.78;;;1.15;;
41829;SDS011;38614;43.472;23.936;2023-08-21T12:16:27;2.53;;;1.58;;
41829;SDS011;38614;43.472;23.936;2023-08-21T12:19:15;2.42;;;1.13;;
41829;SDS011;38614;43.472;23.936;2023-08-21T12:22:03;1.25;;;1.13;;
41829;SDS011;38614;43.472;23.936;2023-08-21T12:24:52;1.08;;;0.90;;
41829;SDS011;38614;43.472;23.936;2023-08-21T12:27:40;7.88;;;1.65;;
41829;SDS011;38614;43.472;23.936;2023-08-21T12:30:28;3.70;;;1.38;;
41829;SDS011;38614;43.472;23.936;2023-08-21T12:33:16;6.75;;;1.00;;
41829;SDS011;38614;43.472;23.936;2023-08-21T12:36:10;7.03;;;1.27;;
41829;SDS011;38614;43.472;23.936;2023-08-21T12:38:58;2.50;;;0.95;;
41829;SDS011;38614;43.472;23.936;2023-08-21T12:41:46;5.25;;;0.68;;
41829;SDS011;38614;43.472;23.936;2023-08-21T12:44:35;5.78;;;0.80;;
41829;SDS011;38614;43.472;23.936;2023-08-21T12:47:23;9.35;;;1.10;;
41829;SDS011;38614;43.472;23.936;2023-08-21T12:50:11;1.48;;;1.02;;
41829;SDS011;38614;43.472;23.936;2023-08-21T12:53:01;3.00;;;1.27;;
41829;SDS011;38614;43.472;23.936;2023-08-21T12:55:49;3.65;;;1.13;;
41829;SDS011;38614;43.472;23.936;2023-08-21T12:58:37;4.45;;;1.08;;
41829;SDS011;38614;43.472;23.936;2023-08-21T13:01:25;5.25;;;0.82;;
41829;SDS011;38614;43.472;23.936;2023-08-21T13:04:13;7.13;;;1.33;;
41829;SDS011;38614;43.472;23.936;2023-08-21T13:07:01;1.90;;;0.98;;
41829;SDS011;38614;43.472;23.936;2023-08-21T13:09:50;4.78;;;0.93;;
41829;SDS011;38614;43.472;23.936;2023-08-21T13:12:38;1.30;;;1.20;;
41829;SDS011;38614;43.472;23.936;2023-08-21T13:15:26;1.58;;;0.88;;
41829;SDS011;38614;43.472;23.936;2023-08-21T13:18:14;5.72;;;1.33;;
41829;SDS011;38614;43.472;23.936;2023-08-21T13:21:02;1.02;;;0.93;;
41829;SDS011;38614;43.472;23.936;2023-08-21T13:23:50;1.80;;;0.80;;
41829;SDS011;38614;43.472;23.936;2023-08-21T13:26:38;3.92;;;1.13;;
41829;SDS011;38614;43.472;23.936;2023-08-21T13:29:26;1.30;;;1.20;;
41829;SDS011;38614;43.472;23.936;2023-08-21T13:32:13;2.25;;;1.33;;
41829;SDS011;38614;43.472;23.936;2023-08-21T13:35:01;4.90;;;1.92;;
41829;SDS011;38614;43.472;23.936;2023-08-21T13:40:40;0.93;;;0.93;;
41829;SDS011;38614;43.472;23.936;2023-08-21T13:43:28;4.78;;;1.17;;
41829;SDS011;38614;43.472;23.936;2023-08-21T13:46:20;1.92;;;1.42;;
41829;SDS011;38614;43.472;23.936;2023-08-21T13:49:08;2.58;;;1.48;;
41829;SDS011;38614;43.472;23.936;2023-08-21T13:51:56;2.20;;;1.42;;
41829;SDS011;38614;43.472;23.936;2023-08-21T13:54:45;9.18;;;1.70;;
41829;SDS011;38614;43.472;23.936;2023-08-21T13:57:33;3.83;;;1.45;;
41829;SDS011;38614;43.472;23.936;2023-08-21T14:00:20;1.83;;;1.67;;
41829;SDS011;38614;43.472;23.936;2023-08-21T14:03:09;12.75;;;1.58;;
41829;SDS011;38614;43.472;23.936;2023-08-21T14:05:57;3.35;;;1.60;;
41829;SDS011;38614;43.472;23.936;2023-08-21T14:08:45;1.50;;;1.40;;
41829;SDS011;38614;43.472;23.936;2023-08-21T14:11:33;3.08;;;1.33;;
41829;SDS011;38614;43.472;23.936;2023-08-21T14:14:21;4.60;;;1.20;;
41829;SDS011;38614;43.472;23.936;2023-08-21T14:17:08;2.80;;;1.30;;
41829;SDS011;38614;43.472;23.936;2023-08-21T14:19:57;2.78;;;1.60;;
41829;SDS011;38614;43.472;23.936;2023-08-21T14:22:45;4.00;;;1.70;;
41829;SDS011;38614;43.472;23.936;2023-08-21T14:25:33;6.40;;;1.98;;
41829;SDS011;38614;43.472;23.936;2023-08-21T14:28:20;0.95;;;0.95;;
41829;SDS011;38614;43.472;23.936;2023-08-21T14:31:08;5.10;;;1.77;;
41829;SDS011;38614;43.472;23.936;2023-08-21T14:33:56;3.67;;;0.98;;
41829;SDS011;38614;43.472;23.936;2023-08-21T14:36:44;2.53;;;1.85;;
41829;SDS011;38614;43.472;23.936;2023-08-21T14:39:32;5.47;;;1.33;;
41829;SDS011;38614;43.472;23.936;2023-08-21T14:42:24;4.57;;;1.17;;
41829;SDS011;38614;43.472;23.936;2023-08-21T14:45:12;0.90;;;0.85;;
41829;SDS011;38614;43.472;23.936;2023-08-21T14:47:59;2.35;;;1.40;;
41829;SDS011;38614;43.472;23.936;2023-08-21T14:50:47;10.00;;;1.90;;
41829;SDS011;38614;43.472;23.936;2023-08-21T14:53:35;3.53;;;1.27;;
41829;SDS011;38614;43.472;23.936;2023-08-21T14:56:23;3.55;;;1.35;;
41829;SDS011;38614;43.472;23.936;2023-08-21T14:59:10;5.75;;;1.58;;
41829;SDS011;38614;43.472;23.936;2023-08-21T15:01:58;8.85;;;1.23;;
41829;SDS011;38614;43.472;23.936;2023-08-21T15:04:46;1.35;;;0.93;;
41829;SDS011;38614;43.472;23.936;2023-08-21T15:07:34;4.00;;;0.93;;
41829;SDS011;38614;43.472;23.936;2023-08-21T15:10:22;3.00;;;1.00;;
41829;SDS011;38614;43.472;23.936;2023-08-21T15:13:09;2.60;;;1.10;;
41829;SDS011;38614;43.472;23.936;2023-08-21T15:15:57;6.70;;;1.33;;
41829;SDS011;38614;43.472;23.936;2023-08-21T15:18:45;2.30;;;1.17;;
41829;SDS011;38614;43.472;23.936;2023-08-21T15:21:39;1.85;;;1.13;;
41829;SDS011;38614;43.472;23.936;2023-08-21T15:24:28;4.18;;;1.05;;
41829;SDS011;38614;43.472;23.936;2023-08-21T15:27:16;2.05;;;0.80;;
41829;SDS011;38614;43.472;23.936;2023-08-21T15:30:05;3.47;;;1.30;;
41829;SDS011;38614;43.472;23.936;2023-08-21T15:32:53;3.20;;;0.88;;
41829;SDS011;38614;43.472;23.936;2023-08-21T15:35:41;5.35;;;1.02;;
41829;SDS011;38614;43.472;23.936;2023-08-21T15:38:29;2.53;;;1.20;;
41829;SDS011;38614;43.472;23.936;2023-08-21T15:41:17;2.95;;;1.17;;
41829;SDS011;38614;43.472;23.936;2023-08-21T15:44:04;4.05;;;1.10;;
41829;SDS011;38614;43.472;23.936;2023-08-21T15:46:52;1.23;;;1.02;;
41829;SDS011;38614;43.472;23.936;2023-08-21T15:50:00;5.65;;;1.10;;
41829;SDS011;38614;43.472;23.936;2023-08-21T15:52:47;3.53;;;0.98;;
41829;SDS011;38614;43.472;23.936;2023-08-21T15:55:35;2.20;;;1.40;;
41829;SDS011;38614;43.472;23.936;2023-08-21T15:58:23;7.32;;;0.98;;
41829;SDS011;38614;43.472;23.936;2023-08-21T16:01:11;7.65;;;0.98;;
41829;SDS011;38614;43.472;23.936;2023-08-21T16:03:59;1.80;;;1.02;;
41829;SDS011;38614;43.472;23.936;2023-08-21T16:06:47;4.72;;;0.98;;
41829;SDS011;38614;43.472;23.936;2023-08-21T16:09:36;1.23;;;1.13;;
41829;SDS011;38614;43.472;23.936;2023-08-21T16:12:24;2.42;;;1.38;;
41829;SDS011;38614;43.472;23.936;2023-08-21T16:15:12;1.30;;;1.05;;
41829;SDS011;38614;43.472;23.936;2023-08-21T16:17:59;2.72;;;0.73;;
41829;SDS011;38614;43.472;23.936;2023-08-21T16:20:47;2.17;;;1.23;;
41829;SDS011;38614;43.472;23.936;2023-08-21T16:23:35;7.57;;;1.13;;
41829;SDS011;38614;43.472;23.936;2023-08-21T16:26:26;2.70;;;1.38;;
41829;SDS011;38614;43.472;23.936;2023-08-21T16:29:14;2.00;;;1.15;;
41829;SDS011;38614;43.472;23.936;2023-08-21T16:32:04;9.32;;;1.52;;
41829;SDS011;38614;43.472;23.936;2023-08-21T16:34:52;2.10;;;1.42;;
41829;SDS011;38614;43.472;23.936;2023-08-21T16:37:41;3.30;;;1.13;;
41829;SDS011;38614;43.472;23.936;2023-08-21T16:40:31;3.92;;;1.40;;
41829;SDS011;38614;43.472;23.936;2023-08-21T16:43:19;5.07;;;1.52;;
41829;SDS011;38614;43.472;23.936;2023-08-21T16:46:07;4.35;;;1.38;;
41829;SDS011;38614;43.472;23.936;2023-08-21T16:48:55;7.90;;;1.70;;
41829;SDS011;38614;43.472;23.936;2023-08-21T16:51:43;2.65;;;1.00;;
41829;SDS011;38614;43.472;23.936;2023-08-21T16:54:30;7.72;;;1.45;;
41829;SDS011;38614;43.472;23.936;2023-08-21T16:57:18;1.80;;;1.50;;